x

Virginia Beach 64 Nm East Of Virginia Beach, Va (44014) Wave Buoy

4:50pm - Sun 23rd Apr 2017 All times are EDT. -4 hours from GMT.

  • Sig Wave height 5.6ft
  • Swell Direction
  • Peak Period 11s
  • Average Period 5s
  • Wind
    20mph, 25mph gusts
  • Sea Temp 53°f
  • 空気 Temp 55°f
  • Sea Pressure 1016.5mb
  • Virginia Beach 64 Nm East Of Virginia Beach, Va
  • Virginia Beach 64 Nm East Of Virginia Beach, Va

More Historic Weather Station data

Upgrade to MSW Pro to gain access to the past 30 days of data for over 8000 Wavebouys and Weather Stations around the globe.

Join Pro

Comparision Forecast

View Surf forecast
   
Sun 04/23 4:50pm 5.5ft 11s 5s 20 25 mph 1016.5mb 53f 55f
3:50pm 5ft 7s 5s 20 22 mph 1016.9mb 53f 55f
2:50pm 5ft 11s 5s 18 20 mph 1017.4mb 54f 55f
1:50pm 5ft 11s 5s 16 20 mph 1017.5mb 54f 55f
12:50pm 5ft 6s 5s 13 18 mph 1018mb 54f 55f
11:50am 5ft 11s 5s 16 18 mph 1017.7mb 54f 53f
10:50am 5ft 7s 5s 13 18 mph 1017.9mb 54f 53f
9:50am 5.5ft 11s 5s 18 20 mph 1017.2mb 54f 53f
8:50am 6ft 6s 5s 20 22 mph 1016.4mb 54f 53f
7:50am 6ft 6s 5s 22 27 mph 1016.5mb 55f 53f
6:50am 6ft 11s 5s 20 22 mph 1016.3mb 55f 53f
5:50am 6ft 11s 5s 20 25 mph 1015.1mb 55f 53f
4:50am 6ft 5s 5s 25 29 mph 1014mb 55f 53f
3:50am 5.5ft 11s 5s 22 27 mph 1013.7mb 56f 54f
2:50am 5.5ft 6s 5s 22 27 mph 1012.8mb 56f 54f
1:50am 5.5ft 12s 5s 20 25 mph 1013.7mb 56f 54f
12:50am 5.5ft 6s 5s 16 20 mph 1014mb 56f 56f
Sat 04/22 11:50pm 6ft 6s 5s 18 22 mph 1013.1mb 57f 56f
10:50pm 6.5ft 6s 5s 22 27 mph 1012.3mb 57f 56f
9:50pm 6ft 6s 5s 20 25 mph 1014.9mb 57f 54f
7:50pm 4.5ft 10s 5s 22 27 mph 1010.5mb 58f 54f
6:50pm 4.5ft 13s 5s 20 25 mph 1010.8mb 59f 56f
5:50pm 4ft 11s 5s 18 22 mph 1011.4mb 59f 56f
4:50pm 4.5ft 11s 6s 7 9 mph 1010.7mb 59f 62f
3:50pm 4.5ft 6s 6s 7 9 mph 1010.8mb 59f 61f
2:50pm 4.5ft 6s 6s 9 11 mph 1011.1mb 58f 61f
1:50pm 4.5ft 6s 6s 7 9 mph 1011.6mb 58f 60f
12:50pm 4.5ft 6s 6s 9
mph
1011.9mb 57f 61f
11:50am 4.5ft 6s 6s 11 13 mph 1011.9mb 57f 60f
10:50am 4.5ft 11s 6s 11 13 mph 1012.2mb 56f 60f
9:50am 4.5ft 6s 6s 11 13 mph 1012.2mb 56f 60f
8:50am 4.5ft 12s 6s 9 11 mph 1012.1mb 56f 60f
7:50am 4ft 6s 6s 9 11 mph 1012mb 56f 59f
6:50am 4.5ft 6s 6s 11
mph
1011.8mb 56f 60f
5:50am 4.5ft 11s 6s 13 16 mph 1011.2mb 56f 61f
4:50am 4ft 11s 5s 16 18 mph 1011mb 57f 61f
3:50am 4ft 6s 5s 11 13 mph 1010.9mb 57f 61f
2:50am 3.5ft 10s 5s 16 18 mph 1011mb 57f 62f
1:50am 4ft 6s 5s 9 18 mph 1011.8mb 57f 61f
12:50am 3.5ft 11s 5s 13 16 mph 1011.9mb 57f 61f
Fri 04/21 11:50pm 3.5ft 11s 5s 13
mph
1012.1mb 57f 62f
10:50pm 3.5ft 10s 5s 11
mph
1012.1mb 57f 60f
9:50pm 4ft 11s 5s 13 16 mph 1012mb 57f 61f
7:50pm 3.5ft 9s 5s 16 18 mph 1011mb 57f 62f
6:50pm 3.5ft 11s 5s 11 13 mph 1011.1mb 58f 62f
5:50pm 3.5ft 10s 5s 13 16 mph 1011.2mb 58f 62f
4:50pm 3ft 10s 5s 13
mph
1011.2mb 57f 62f
3:50pm 3ft 9s 5s 11 13 mph 1011.5mb 57f 61f
2:50pm 3ft 9s 5s 9 11 mph 1012.3mb 57f 60f
1:50pm 3.5ft 10s 5s 9
mph
1013.1mb 56f 60f
12:50pm 3ft 10s 5s 13
mph
1013.3mb 56f 61f
11:50am 3.5ft 11s 6s 11
mph
1013.8mb 56f 60f
10:50am 3ft 9s 5s 13 16 mph 1014mb 56f 59f
8:50am 3ft 11s 5s 11 13 mph 1014.4mb 55f 59f
7:50am 3.5ft 11s 5s 13
mph
1014.7mb 55f 59f
6:50am 3.5ft 10s 5s 11 13 mph 1014.6mb 55f 59f
5:50am 3.5ft 10s 6s 11 13 mph 1014.3mb 55f 59f
4:50am 3.5ft 10s 5s 13
mph
1014.3mb 55f 59f
3:50am 3ft 11s 5s 13 16 mph 1014.4mb 55f 60f
2:50am 3ft 11s 5s 13 16 mph 1014.5mb 55f 60f
1:50am 3.5ft 11s 6s 13 18 mph 1015.4mb 56f 60f
12:50am 3.5ft 10s 6s 11 13 mph 1016.3mb 56f 59f
Thu 04/20 11:50pm 3.5ft 11s 5s 11 13 mph 1016.5mb 56f 60f
10:50pm 3.5ft 9s 6s 11 13 mph 1016.8mb 56f 60f
9:50pm 3.5ft 11s 6s 13 16 mph 1016.9mb 56f 61f
8:50pm 3.5ft 11s 6s 13 16 mph 1017.1mb 56f 61f
7:50pm 3.5ft 9s 6s 13
mph
1016.8mb 56f 62f
6:50pm 4ft 11s 7s 11 13 mph 1017mb 56f 61f
5:50pm 3.5ft 11s 6s 9 11 mph 1017.5mb 57f 60f
4:50pm 3.5ft 10s 7s 11 13 mph 1017.5mb 56f 60f
3:50pm 3.5ft 9s 7s 9 11 mph 1018.3mb 56f 60f
2:50pm 3.5ft 9s 6s 9 11 mph 1018.9mb 56f 59f
1:50pm 3.5ft 8s 6s 11 13 mph 1019.2mb 56f 60f
12:50pm 3.5ft 9s 6s 9 11 mph 1020.1mb 55f 58f
11:50am 3.5ft 9s 6s 9 11 mph 1021mb 55f 59f
10:50am 3.5ft 8s 6s 9 11 mph 1021.9mb 55f 59f
9:50am 3.5ft 9s 6s 9 11 mph 1022.5mb 55f 59f
8:50am 3.5ft 8s 5s 9 11 mph 1022.8mb 55f 59f
7:50am 4ft 9s 6s 11 13 mph 1022.5mb 55f 59f
6:50am 4ft 10s 6s 9 11 mph 1022.4mb 55f 59f
5:50am 3.5ft 6s 6s 9
mph
1022.3mb 55f 59f
4:50am 4.5ft 8s 6s 9
mph
1022.7mb 55f 58f
3:50am 4ft 8s 6s 7
mph
1023.3mb 55f 59f
2:50am 4ft 8s 6s 7
mph
1023.2mb 55f 60f
1:50am 4ft 8s 6s 2 4 mph 1023.9mb 55f 59f
12:50am 4ft 9s 6s 4
mph
1024.4mb 55f 59f
Wed 04/19 11:50pm 4ft 8s 6s 9
mph
1024.7mb 55f 58f
10:50pm 4.5ft 8s 6s 7 9 mph 1025.4mb 55f 57f
9:50pm 4.5ft 8s 6s 9
mph
1026mb 55f 57f